Atlanta, Kansas
Current Conditions -  °F | °C
As of 4:35 PM on Wednesday 22 Oct 2014 (Local Time) from KEQA Reporting Station
Broken Clouds Broken Clouds  
Wind Chill: 79°   Ceiling: 6500
Heat Index: 79°   Visibility: 10mi
Dew Point: 54°   Wind: 15mph
Humidity: 42%   Direction: 190°S
Pressure: 30.06"   Gusts: 22mph
Location:  37.44°N, 96.76°W
Report Text: KEQA 222135Z AUTO 19013G19KT 10SM SCT050 BKN065 26/12 A3006 RMK AO2
Loading
Personal Weather Stations






























Interactive Weather Map
Tropical Storm Tracking
New forecast layout! Learn more

10-Day Weather Forecast

Advertisements
Track Severe Weather on mobile